Time;durP1;ratioP1;P1;durP2;ratioP2;P2;SDS_P1;SDS_P2;PMS_P1;PMS_P2;Temp;Humidity;BMP_temperature;BMP_pressure;BME280_temperature;BME280_humidity;BME280_pressure;Samples;Min_cycle;Max_cycle;Signal;HPM_P1;HPM_P2
2022/12/15 00:40:23;;;;;;;22.40;12.80;;;;;;;-8.31;83.54;99718.61;105112;1297;61344;-72
2022/12/15 00:42:50;;;;;;;22.60;12.60;;;;;;;-8.33;83.32;99721.01;105790;1291;59012;-72
2022/12/15 00:45:16;;;;;;;22.40;12.40;;;;;;;-8.37;83.43;99721.73;105650;1284;59127;-72
2022/12/15 00:47:42;;;;;;;21.70;12.70;;;;;;;-8.40;83.55;99716.55;105696;1292;59144;-72
2022/12/15 01:20:25;;;;;;;22.30;12.30;;;;;;;-8.38;83.68;99748.16;105657;1293;60297;-72
2022/12/15 01:22:54;;;;;;;19.80;11.90;;;;;;;-8.37;83.79;99752.93;105787;1291;59027;-72
2022/12/15 01:25:23;;;;;;;20.60;12.70;;;;;;;-8.38;83.94;99752.60;105612;1290;70947;-72
2022/12/15 01:27:50;;;;;;;20.90;12.20;;;;;;;-8.37;84.14;99752.27;105665;1294;71288;-72
2022/12/15 01:30:20;;;;;;;21.60;12.30;;;;;;;-8.38;83.96;99752.77;105777;1291;61778;-72
2022/12/15 01:32:47;;;;;;;20.60;11.80;;;;;;;-8.40;83.77;99751.86;105595;1290;61143;-72
2022/12/15 01:35:13;;;;;;;18.70;11.50;;;;;;;-8.43;83.59;99753.58;105630;1292;59033;-72
2022/12/15 01:37:40;;;;;;;20.70;11.80;;;;;;;-8.46;83.17;99752.02;105677;1285;71003;-72
2022/12/15 01:42:55;;;;;;;20.30;11.90;;;;;;;-8.50;83.61;99754.98;105664;1292;60456;-72
2022/12/15 01:45:44;;;;;;;21.70;12.00;;;;;;;-8.51;83.85;99752.45;105748;1284;59345;-72
2022/12/15 01:48:16;;;;;;;21.90;12.90;;;;;;;-8.52;83.77;99753.19;105754;1290;74537;-73
2022/12/15 01:50:55;;;;;;;19.60;12.30;;;;;;;-8.53;83.68;99757.03;105722;1292;71046;-72
2022/12/15 01:53:22;;;;;;;21.00;12.50;;;;;;;-8.55;83.65;99760.70;105681;1289;72613;-72
2022/12/15 01:55:49;;;;;;;25.40;14.20;;;;;;;-8.56;83.46;99762.84;105602;1290;61896;-72
2022/12/15 01:58:17;;;;;;;22.60;12.60;;;;;;;-8.61;83.03;99762.37;105746;1290;60277;-72
2022/12/15 02:00:44;;;;;;;24.00;12.30;;;;;;;-8.63;83.02;99763.15;105789;1290;74920;-72
2022/12/15 02:03:11;;;;;;;19.80;12.30;;;;;;;-8.65;83.09;99763.92;105573;1286;59451;-72
2022/12/15 02:05:40;;;;;;;19.90;11.30;;;;;;;-8.69;82.33;99760.89;105634;1286;72794;-72
2022/12/15 02:08:07;;;;;;;19.30;11.50;;;;;;;-8.76;82.22;99756.79;105597;1294;60445;-72
2022/12/15 02:11:19;;;;;;;18.30;12.10;;;;;;;-8.82;82.40;99760.13;105727;1291;60692;-72
2022/12/15 02:13:56;;;;;;;21.00;11.50;;;;;;;-8.83;82.90;99761.92;105753;1290;73119;-72
2022/12/15 02:16:46;;;;;;;19.50;11.70;;;;;;;-8.83;83.29;99768.94;105729;1291;70196;-72
2022/12/15 02:19:44;;;;;;;21.10;12.60;;;;;;;-8.83;83.27;99772.55;105590;1291;221409;-72
2022/12/15 02:22:13;;;;;;;20.20;11.20;;;;;;;-8.80;83.74;99771.04;105656;1291;60516;-72
2022/12/15 02:25:02;;;;;;;22.90;12.50;;;;;;;-8.77;83.88;99777.38;105744;1290;59369;-72
2022/12/15 02:28:07;;;;;;;21.60;12.50;;;;;;;-8.73;84.15;99774.26;105774;1290;74045;-73
2022/12/15 02:33:49;;;;;;;24.20;12.40;;;;;;;-8.57;84.64;99783.10;105690;1294;71733;-72
2022/12/15 02:36:32;;;;;;;20.00;11.80;;;;;;;-8.50;85.16;99786.89;105675;1290;61765;-72
2022/12/15 02:38:58;;;;;;;22.60;12.80;;;;;;;-8.43;85.04;99788.91;105616;1290;59399;-72
2022/12/15 02:41:44;;;;;;;23.90;13.20;;;;;;;-8.37;85.07;99790.79;105787;1283;59349;-72
2022/12/15 02:44:36;;;;;;;20.90;12.70;;;;;;;-8.31;85.39;99796.48;105728;1284;70948;-72
2022/12/15 02:47:26;;;;;;;19.20;11.90;;;;;;;-8.23;85.41;99801.06;105615;1290;72510;-73
2022/12/15 02:50:20;;;;;;;21.60;12.80;;;;;;;-8.16;85.45;99808.80;105676;1291;60405;-73
2022/12/15 02:52:56;;;;;;;20.40;11.90;;;;;;;-8.08;85.61;99809.59;105797;1283;58961;-73
2022/12/15 02:55:53;;;;;;;20.50;12.00;;;;;;;-7.99;86.02;99814.45;105799;1291;72469;-73
2022/12/15 02:58:35;;;;;;;18.10;11.10;;;;;;;-7.91;85.87;99810.41;105783;1290;70848;-73
2022/12/15 03:01:28;;;;;;;19.10;11.40;;;;;;;-7.83;85.06;99804.84;105523;1288;70033;-72
2022/12/15 03:03:57;;;;;;;17.50;11.10;;;;;;;-7.75;85.50;99798.60;105792;1291;60256;-72
2022/12/15 03:06:24;;;;;;;22.80;11.70;;;;;;;-7.67;85.44;99801.45;105687;1283;60185;-73
2022/12/15 03:08:51;;;;;;;18.90;12.10;;;;;;;-7.62;85.46;99800.67;105793;1287;74013;-72
2022/12/15 03:11:17;;;;;;;20.10;11.90;;;;;;;-7.54;85.78;99801.79;105703;1289;59548;-72
2022/12/15 03:13:44;;;;;;;19.20;12.00;;;;;;;-7.47;85.72;99802.96;105754;1276;58949;-72
2022/12/15 03:16:11;;;;;;;20.10;12.10;;;;;;;-7.39;85.69;99805.07;105606;1293;59181;-72
2022/12/15 03:18:37;;;;;;;17.70;11.10;;;;;;;-7.30;85.41;99809.10;105667;1293;59043;-73
2022/12/15 03:21:04;;;;;;;18.30;11.70;;;;;;;-7.24;85.30;99807.72;105778;1290;59573;-72
2022/12/15 03:23:30;;;;;;;17.50;11.10;;;;;;;-7.17;85.17;99807.52;105780;1290;59307;-72
2022/12/15 03:25:57;;;;;;;23.40;11.80;;;;;;;-7.10;84.99;99810.05;105638;1290;71650;-72
2022/12/15 03:28:23;;;;;;;18.60;11.60;;;;;;;-7.03;85.04;99818.44;105742;1283;59130;-73
2022/12/15 03:30:50;;;;;;;20.20;11.60;;;;;;;-6.98;84.73;99815.94;105683;1284;60273;-73
2022/12/15 03:33:18;;;;;;;19.80;11.00;;;;;;;-6.91;84.66;99822.79;105780;1289;74876;-73
2022/12/15 03:35:44;;;;;;;18.40;11.40;;;;;;;-6.86;84.60;99820.96;105760;1283;59325;-73
2022/12/15 03:38:11;;;;;;;19.50;11.30;;;;;;;-6.81;84.39;99822.52;105708;1292;58925;-73
2022/12/15 03:40:37;;;;;;;20.70;11.30;;;;;;;-6.76;84.47;99826.40;105773;1289;59137;-73
2022/12/15 03:43:04;;;;;;;21.40;11.50;;;;;;;-6.71;84.50;99830.75;105780;1290;59836;-72
2022/12/15 03:45:30;;;;;;;18.90;11.40;;;;;;;-6.66;84.35;99835.98;105634;1290;59406;-72
2022/12/15 03:47:57;;;;;;;19.60;10.80;;;;;;;-6.60;84.16;99843.89;105830;1282;59229;-72
2022/12/15 03:50:26;;;;;;;20.10;11.20;;;;;;;-6.55;84.10;99842.42;105643;1294;59086;-73
2022/12/15 03:53:03;;;;;;;18.60;10.80;;;;;;;-6.52;84.15;99840.16;105824;1291;60610;-72
2022/12/15 03:55:30;;;;;;;18.60;11.00;;;;;;;-6.46;83.76;99845.19;105673;1297;60624;-72
2022/12/15 03:57:58;;;;;;;20.30;12.00;;;;;;;-6.44;83.86;99845.92;105648;1292;73404;-72
2022/12/15 04:00:24;;;;;;;16.90;10.90;;;;;;;-6.40;84.09;99845.54;105726;1291;69534;-72
2022/12/15 04:02:51;;;;;;;18.60;11.30;;;;;;;-6.38;83.82;99845.18;105664;1280;72976;-73
2022/12/15 04:05:36;;;;;;;18.90;11.20;;;;;;;-6.34;83.73;99844.50;105658;1291;61148;-73
2022/12/15 04:08:03;;;;;;;18.10;11.00;;;;;;;-6.31;83.73;99839.16;105782;1291;59689;-73
2022/12/15 04:10:32;;;;;;;20.20;11.60;;;;;;;-6.28;83.64;99839.83;105577;1290;75092;-73
2022/12/15 04:13:03;;;;;;;19.50;11.60;;;;;;;-6.23;83.47;99846.05;105645;1292;71175;-73
2022/12/15 04:15:29;;;;;;;19.60;11.40;;;;;;;-6.19;83.20;99848.27;105634;1291;70205;-73
2022/12/15 04:17:57;;;;;;;19.60;11.60;;;;;;;-6.16;83.17;99848.92;105669;1284;62565;-72
2022/12/15 04:20:23;;;;;;;18.70;11.80;;;;;;;-6.11;83.05;99852.98;105687;1290;60997;-72
2022/12/15 04:22:50;;;;;;;18.20;11.20;;;;;;;-6.08;83.07;99851.61;105722;1290;59312;-73
2022/12/15 05:32:05;;;;;;;18.80;10.70;;;;;;;-5.65;81.14;99887.79;105817;1281;74507;-72
2022/12/15 05:34:34;;;;;;;16.70;10.60;;;;;;;-5.64;80.93;99886.48;105655;1294;70885;-72
2022/12/15 05:37:03;;;;;;;18.40;10.90;;;;;;;-5.64;81.04;99883.73;105735;1289;73752;-72
2022/12/15 05:39:29;;;;;;;18.10;10.50;;;;;;;-5.63;81.09;99882.65;105765;1291;60454;-73
2022/12/15 05:41:56;;;;;;;19.50;10.80;;;;;;;-5.61;80.82;99885.61;105770;1291;59492;-73
2022/12/15 05:44:24;;;;;;;18.30;10.30;;;;;;;-5.60;80.92;99888.84;105734;1287;72992;-73
2022/12/15 05:46:51;;;;;;;17.00;10.40;;;;;;;-5.58;80.84;99889.91;105608;1286;71210;-73
2022/12/15 05:49:18;;;;;;;17.10;10.90;;;;;;;-5.57;80.58;99899.32;105672;1286;71434;-72
2022/12/15 05:51:46;;;;;;;16.50;10.40;;;;;;;-5.56;80.66;99897.19;105561;1290;61720;-72
2022/12/15 05:54:18;;;;;;;16.30;10.20;;;;;;;-5.56;80.53;99903.21;105643;1293;59693;-72
2022/12/15 05:56:46;;;;;;;17.90;9.70;;;;;;;-5.55;80.60;99910.23;105698;1291;72990;-72
2022/12/15 05:59:16;;;;;;;17.30;10.80;;;;;;;-5.53;80.45;99914.97;105599;1288;70662;-73
2022/12/15 06:01:42;;;;;;;19.20;10.60;;;;;;;-5.50;80.26;99923.40;105726;1292;73552;-73
2022/12/15 06:04:11;;;;;;;17.80;10.50;;;;;;;-5.50;80.18;99922.02;105774;1290;58898;-73
2022/12/15 06:06:39;;;;;;;16.40;10.30;;;;;;;-5.48;80.23;99923.61;105700;1284;60472;-73
2022/12/15 06:09:05;;;;;;;18.20;10.60;;;;;;;-5.47;80.17;99925.13;105667;1291;73171;-73
2022/12/15 06:11:32;;;;;;;16.10;9.60;;;;;;;-5.46;80.20;99927.11;105720;1294;70657;-72
2022/12/15 06:13:58;;;;;;;17.70;10.20;;;;;;;-5.44;80.03;99932.31;105691;1292;59273;-72
2022/12/15 06:16:29;;;;;;;17.90;11.40;;;;;;;-5.43;79.87;99933.48;105805;1276;59006;-72
2022/12/15 06:18:58;;;;;;;19.40;11.60;;;;;;;-5.42;79.76;99933.60;105676;1286;59098;-73
2022/12/15 06:21:34;;;;;;;17.50;10.20;;;;;;;-5.40;79.77;99937.98;105714;1288;72614;-73
2022/12/15 06:24:03;;;;;;;16.10;9.80;;;;;;;-5.40;79.84;99939.86;105679;1292;70852;-73
2022/12/15 06:26:34;;;;;;;15.70;9.80;;;;;;;-5.40;79.74;99938.60;105681;1291;73492;-73
2022/12/15 06:29:03;;;;;;;17.00;10.30;;;;;;;-5.40;79.74;99943.48;105554;1292;60464;-73
2022/12/15 06:31:30;;;;;;;16.90;10.50;;;;;;;-5.38;79.79;99947.67;105479;1290;60165;-74
2022/12/15 06:33:58;;;;;;;16.90;10.70;;;;;;;-5.35;79.91;99952.81;105754;1290;72720;-74
2022/12/15 06:36:29;;;;;;;15.80;9.80;;;;;;;-5.30;79.86;99958.55;105615;1291;69478;-74
2022/12/15 06:39:00;;;;;;;15.40;10.00;;;;;;;-5.26;79.63;99958.98;105692;1290;71083;-74
2022/12/15 06:41:30;;;;;;;16.60;10.30;;;;;;;-5.22;79.57;99959.81;105631;1291;62063;-74
2022/12/15 06:43:59;;;;;;;20.20;10.50;;;;;;;-5.19;79.51;99961.36;105644;1290;60102;-74
2022/12/15 06:46:28;;;;;;;17.90;11.00;;;;;;;-5.18;79.56;99956.98;105584;1286;74563;-74
2022/12/15 06:48:55;;;;;;;21.40;10.90;;;;;;;-5.18;79.48;99960.78;105547;1294;70127;-74
2022/12/15 06:51:22;;;;;;;17.60;11.00;;;;;;;-5.19;79.58;99957.75;105697;1292;71115;-74
2022/12/15 06:53:49;;;;;;;16.50;10.40;;;;;;;-5.19;79.80;99961.34;105691;1290;60406;-74
2022/12/15 06:56:27;;;;;;;17.80;10.60;;;;;;;-5.19;79.82;99965.13;105699;1290;60596;-74
2022/12/15 06:59:00;;;;;;;17.90;11.10;;;;;;;-5.19;79.87;99970.64;105617;1293;72821;-74
2022/12/15 07:01:27;;;;;;;17.20;10.60;;;;;;;-5.19;79.98;99972.02;105752;1283;70065;-74
2022/12/15 07:03:55;;;;;;;20.80;11.00;;;;;;;-5.18;79.89;99970.43;105688;1287;72087;-74
2022/12/15 07:06:22;;;;;;;17.30;10.70;;;;;;;-5.19;80.07;99971.31;105613;1294;61601;-74
2022/12/15 07:08:51;;;;;;;18.50;11.20;;;;;;;-5.19;80.32;99973.41;105738;1291;58890;-75
2022/12/15 07:11:19;;;;;;;17.70;10.70;;;;;;;-5.18;80.44;99978.84;105681;1291;74562;-74
2022/12/15 07:13:50;;;;;;;15.40;9.90;;;;;;;-5.17;80.40;99980.51;105652;1284;70460;-74
2022/12/15 07:16:17;;;;;;;19.60;11.00;;;;;;;-5.16;80.39;99980.67;105718;1291;73651;-74
2022/12/15 07:18:44;;;;;;;18.00;11.00;;;;;;;-5.16;80.33;99987.34;105727;1291;60166;-74
2022/12/15 07:21:10;;;;;;;17.70;9.90;;;;;;;-5.15;80.42;99986.59;105618;1291;59410;-74
2022/12/15 07:23:37;;;;;;;19.10;10.60;;;;;;;-5.14;80.51;99987.63;105597;1290;59042;-74
2022/12/15 07:26:22;;;;;;;17.90;10.70;;;;;;;-5.15;80.70;99990.57;105729;1292;69124;-74
2022/12/15 07:28:49;;;;;;;18.20;10.60;;;;;;;-5.14;80.64;99996.52;105823;1285;71065;-73
2022/12/15 07:31:16;;;;;;;18.30;10.90;;;;;;;-5.13;80.61;100006.83;105681;1284;59969;-73
2022/12/15 07:33:43;;;;;;;18.90;11.50;;;;;;;-5.11;80.76;100007.76;105650;1290;59191;-73
2022/12/15 07:36:09;;;;;;;18.40;11.20;;;;;;;-5.10;80.59;100008.55;105618;1291;58966;-73
2022/12/15 07:38:37;;;;;;;18.30;10.50;;;;;;;-5.09;80.60;100008.69;105810;1284;70904;-73
2022/12/15 07:41:05;;;;;;;18.40;10.50;;;;;;;-5.09;80.42;100017.46;105648;1292;71447;-73
2022/12/15 07:43:32;;;;;;;18.00;10.30;;;;;;;-5.11;80.66;100023.60;105672;1291;62182;-74
2022/12/15 07:45:59;;;;;;;18.20;11.10;;;;;;;-5.10;80.72;100032.69;105697;1290;60365;-75
2022/12/15 07:48:26;;;;;;;19.20;11.90;;;;;;;-5.12;80.97;100032.44;105647;1291;73355;-74
2022/12/15 07:50:56;;;;;;;16.80;11.30;;;;;;;-5.10;81.01;100044.74;105721;1286;69099;-74
2022/12/15 07:53:33;;;;;;;18.60;11.10;;;;;;;-5.07;80.95;100043.41;105643;1291;71461;-74
2022/12/15 07:56:03;;;;;;;17.40;10.70;;;;;;;-5.06;80.85;100046.63;105617;1290;62864;-74
2022/12/15 07:58:34;;;;;;;19.30;10.80;;;;;;;-5.06;80.88;100050.05;105638;1290;58993;-74
2022/12/15 08:01:03;;;;;;;20.10;11.10;;;;;;;-5.05;80.93;100052.59;105639;1289;58944;-74
2022/12/15 08:03:30;;;;;;;17.80;11.00;;;;;;;-5.04;80.95;100059.05;105540;1289;70367;-74
2022/12/15 08:06:02;;;;;;;18.00;10.70;;;;;;;-5.02;80.83;100051.21;105550;1289;74887;-74
2022/12/15 08:08:30;;;;;;;19.40;10.80;;;;;;;-5.01;80.97;100050.41;105728;1291;60873;-74
2022/12/15 08:10:58;;;;;;;18.90;11.60;;;;;;;-4.98;81.15;100052.54;105778;1290;60811;-74
2022/12/15 08:13:24;;;;;;;19.10;10.90;;;;;;;-4.96;81.05;100050.83;105696;1284;75168;-74
2022/12/15 08:16:11;;;;;;;19.10;10.90;;;;;;;-4.92;81.15;100060.08;105725;1292;71740;-74
2022/12/15 08:18:38;;;;;;;16.90;10.70;;;;;;;-4.89;81.21;100060.25;105671;1292;71849;-74
2022/12/15 08:21:07;;;;;;;20.60;12.20;;;;;;;-4.84;81.33;100064.96;105790;1291;61753;-74
2022/12/15 08:23:34;;;;;;;28.20;13.80;;;;;;;-4.78;81.23;100067.20;105605;1290;59737;-74
2022/12/15 08:26:03;;;;;;;23.10;13.10;;;;;;;-4.70;81.28;100069.14;105778;1276;73670;-74
2022/12/15 08:28:31;;;;;;;18.30;11.40;;;;;;;-4.65;81.25;100069.30;105786;1283;71176;-74
2022/12/15 08:31:05;;;;;;;20.70;11.90;;;;;;;-4.58;81.13;100075.11;105773;1289;72794;-74
2022/12/15 08:33:32;;;;;;;19.80;12.70;;;;;;;-4.49;81.13;100081.66;105722;1290;60588;-74
2022/12/15 08:36:01;;;;;;;20.60;12.60;;;;;;;-4.42;81.22;100078.81;105696;1291;60912;-74
2022/12/15 08:38:29;;;;;;;19.80;12.40;;;;;;;-4.35;80.92;100079.75;105582;1291;73184;-74
2022/12/15 08:40:55;;;;;;;18.40;11.50;;;;;;;-4.30;80.79;100078.75;105564;1293;71019;-74
2022/12/15 08:43:23;;;;;;;19.80;11.90;;;;;;;-4.23;80.77;100081.08;105641;1291;72349;-74
2022/12/15 08:45:49;;;;;;;19.30;12.00;;;;;;;-4.16;80.66;100081.83;105659;1286;61109;-74
2022/12/15 08:48:16;;;;;;;20.20;11.90;;;;;;;-4.10;80.58;100073.66;105805;1291;59219;-74
2022/12/15 08:50:45;;;;;;;21.30;11.60;;;;;;;-4.04;80.50;100076.45;105778;1284;58906;-74
2022/12/15 08:53:12;;;;;;;19.30;12.10;;;;;;;-3.98;80.29;100081.59;105651;1294;70566;-74
2022/12/15 08:56:08;;;;;;;18.50;11.70;;;;;;;-3.91;80.24;100083.20;105803;1283;72008;-74
2022/12/15 08:58:35;;;;;;;19.90;12.20;;;;;;;-3.84;80.26;100086.91;105644;1292;62097;-74
2022/12/15 09:01:14;;;;;;;18.80;11.80;;;;;;;-3.78;80.18;100090.65;105721;1290;62605;-73
2022/12/15 09:03:49;;;;;;;19.10;11.80;;;;;;;-3.71;80.22;100087.45;105689;1291;75719;-73
2022/12/15 09:06:19;;;;;;;19.00;11.60;;;;;;;-3.62;80.04;100091.03;105710;1293;70024;-73
2022/12/15 09:08:46;;;;;;;19.00;12.20;;;;;;;-3.53;79.98;100090.65;105597;1290;70259;-74
2022/12/15 09:11:16;;;;;;;17.70;11.60;;;;;;;-3.46;79.70;100089.84;105755;1290;60565;-74
2022/12/15 09:13:43;;;;;;;18.40;12.20;;;;;;;-3.38;79.60;100088.30;105654;1291;59140;-74
2022/12/15 09:16:14;;;;;;;20.10;11.90;;;;;;;-3.31;79.38;100086.74;105772;1291;74088;-73
2022/12/15 09:18:45;;;;;;;19.80;11.10;;;;;;;-3.22;79.22;100081.70;105648;1290;70159;-73
2022/12/15 09:21:13;;;;;;;19.40;12.30;;;;;;;-3.14;79.19;100082.21;105573;1287;72480;-73
2022/12/15 09:23:40;;;;;;;20.70;12.90;;;;;;;-3.07;78.88;100084.13;105592;1291;60432;-73
2022/12/15 09:26:14;;;;;;;21.50;12.40;;;;;;;-2.99;78.89;100090.66;105648;1294;59114;-72
2022/12/15 09:28:42;;;;;;;17.50;10.90;;;;;;;-2.92;78.59;100093.46;105634;1290;73391;-72
2022/12/15 09:31:14;;;;;;;18.80;12.50;;;;;;;-2.84;78.36;100099.91;105692;1289;69506;-72
2022/12/15 09:33:41;;;;;;;20.70;12.90;;;;;;;-2.78;78.24;100103.11;105650;1292;71346;-72
2022/12/15 09:36:11;;;;;;;18.00;11.40;;;;;;;-2.75;77.91;100105.52;105800;1291;60432;-73
2022/12/15 09:38:40;;;;;;;17.40;11.80;;;;;;;-2.72;77.59;100102.21;105655;1294;59757;-73
2022/12/15 09:41:08;;;;;;;18.20;10.90;;;;;;;-2.68;77.49;100100.86;105618;1294;73880;-73
2022/12/15 09:43:40;;;;;;;18.80;11.40;;;;;;;-2.63;77.35;100099.19;105797;1287;71136;-73
2022/12/15 09:46:22;;;;;;;18.00;11.70;;;;;;;-2.58;77.14;100097.29;105656;1290;71321;-73
2022/12/15 09:48:51;;;;;;;17.20;11.20;;;;;;;-2.51;77.27;100099.88;105754;1282;63635;-72
2022/12/15 09:51:19;;;;;;;18.60;11.60;;;;;;;-2.43;77.28;100102.84;105726;1287;59178;-73
2022/12/15 09:53:46;;;;;;;19.10;11.40;;;;;;;-2.35;77.02;100107.84;105806;1291;72823;-73
2022/12/15 09:56:44;;;;;;;17.90;11.70;;;;;;;-2.29;76.99;100110.86;105705;1291;69669;-73
2022/12/15 09:59:29;;;;;;;25.10;15.20;;;;;;;-2.21;77.00;100109.81;105653;1293;73078;-73
2022/12/15 10:02:19;;;;;;;22.10;12.70;;;;;;;-2.16;76.59;100112.00;105730;1290;60550;-74
2022/12/15 10:04:52;;;;;;;19.40;11.90;;;;;;;-2.12;76.22;100115.89;105773;1291;58984;-74
2022/12/15 10:07:30;;;;;;;17.70;11.70;;;;;;;-2.08;76.20;100114.76;105747;1289;73616;-73
2022/12/15 10:09:56;;;;;;;17.40;11.50;;;;;;;-2.02;76.20;100117.11;105576;1294;70403;-74
2022/12/15 10:12:29;;;;;;;17.50;10.90;;;;;;;-2.00;75.80;100121.31;105772;1297;72496;-74
2022/12/15 10:15:21;;;;;;;19.50;12.00;;;;;;;-1.97;75.97;100122.32;105626;1294;60441;-73
2022/12/15 10:17:50;;;;;;;17.60;11.30;;;;;;;-1.90;76.01;100123.40;105817;1291;60109;-74
2022/12/15 10:20:19;;;;;;;17.20;11.50;;;;;;;-1.84;76.11;100120.67;105679;1291;73421;-74
2022/12/15 10:22:46;;;;;;;18.20;10.80;;;;;;;-1.79;76.03;100116.86;105676;1295;72869;-74
2022/12/15 10:25:24;;;;;;;17.80;11.00;;;;;;;-1.73;75.99;100112.80;105615;1291;71282;-74
2022/12/15 10:28:14;;;;;;;17.60;11.30;;;;;;;-1.68;75.87;100116.74;105601;1293;62067;-74
2022/12/15 10:31:28;;;;;;;18.20;11.90;;;;;;;-1.57;76.03;100114.09;105767;1290;58837;-74
2022/12/15 10:34:09;;;;;;;17.10;11.30;;;;;;;-1.47;75.63;100112.15;105440;1288;73514;-74
2022/12/15 10:36:36;;;;;;;19.80;11.40;;;;;;;-1.38;75.49;100111.67;105689;1294;69677;-74
2022/12/15 10:39:03;;;;;;;16.50;10.70;;;;;;;-1.32;75.49;100116.08;105832;1287;59289;-74
2022/12/15 10:41:32;;;;;;;18.70;11.20;;;;;;;-1.24;75.45;100122.73;105645;1283;60229;-74
2022/12/15 10:43:58;;;;;;;17.10;11.60;;;;;;;-1.16;75.44;100128.27;105633;1292;58963;-74
2022/12/15 10:46:27;;;;;;;17.30;11.50;;;;;;;-1.09;75.30;100125.13;105787;1290;59125;-74
2022/12/15 10:49:18;;;;;;;17.50;10.80;;;;;;;-1.03;75.23;100128.17;105781;1291;71523;-74
2022/12/15 10:51:56;;;;;;;17.80;11.60;;;;;;;-0.97;74.99;100131.70;105711;1294;70143;-74
2022/12/15 10:54:29;;;;;;;19.10;11.60;;;;;;;-0.94;74.73;100132.85;105629;1292;59619;-74
2022/12/15 10:56:58;;;;;;;17.20;11.40;;;;;;;-0.88;74.94;100131.86;105700;1292;59604;-74
2022/12/15 10:59:31;;;;;;;17.00;10.40;;;;;;;-0.85;74.65;100130.09;105588;1299;73433;-74
2022/12/15 11:02:16;;;;;;;16.60;10.80;;;;;;;-0.80;74.46;100133.55;105705;1297;69560;-74
2022/12/15 11:04:59;;;;;;;16.80;11.00;;;;;;;-0.73;74.43;100128.20;105792;1290;70383;-73
2022/12/15 11:07:32;;;;;;;17.00;10.50;;;;;;;-0.65;74.42;100126.20;105715;1293;60962;-74
2022/12/15 11:10:01;;;;;;;17.70;11.60;;;;;;;-0.54;74.12;100127.27;105589;1291;59026;-74
2022/12/15 11:15:22;;;;;;;18.30;11.60;;;;;;;-0.21;72.76;100125.73;105723;1299;70199;-73
2022/12/15 11:17:58;;;;;;;17.30;10.30;;;;;;;-0.14;72.83;100125.18;105756;1297;71130;-73
2022/12/15 11:20:34;;;;;;;17.40;10.90;;;;;;;0.07;72.37;100128.75;105699;1289;59169;-74
2022/12/15 11:23:21;;;;;;;16.10;11.00;;;;;;;0.36;71.81;100121.29;105646;1291;58767;-73
2022/12/15 11:25:55;;;;;;;13.50;10.30;;;;;;;0.74;70.72;100127.27;105777;1291;73146;-74
2022/12/15 11:28:39;;;;;;;15.80;10.60;;;;;;;1.10;69.10;100127.20;105744;1291;69836;-74
2022/12/15 11:31:35;;;;;;;14.10;9.60;;;;;;;1.43;68.13;100128.10;105574;1292;72395;-73
2022/12/15 11:34:03;;;;;;;14.40;9.90;;;;;;;1.77;67.42;100129.59;105772;1292;59678;-74
2022/12/15 11:37:00;;;;;;;16.30;9.70;;;;;;;1.98;66.53;100124.43;105664;1290;59703;-74
2022/12/15 11:39:47;;;;;;;16.80;10.50;;;;;;;2.21;65.64;100126.95;105755;1287;73082;-73
2022/12/15 11:42:52;;;;;;;14.50;10.00;;;;;;;2.54;64.79;100127.70;105800;1292;69654;-74
2022/12/15 11:45:29;;;;;;;17.30;9.80;;;;;;;2.79;63.15;100126.52;105758;1289;72208;-73
2022/12/15 11:48:01;;;;;;;14.60;9.90;;;;;;;3.00;62.92;100129.67;105709;1292;60012;-73
2022/12/15 11:50:37;;;;;;;13.60;10.20;;;;;;;3.23;61.86;100127.90;105686;1290;59190;-73
2022/12/15 11:53:12;;;;;;;15.20;9.40;;;;;;;3.49;61.28;100135.85;105809;1297;74421;-73
2022/12/15 11:55:51;;;;;;;13.40;9.20;;;;;;;3.71;59.85;100137.52;105800;1290;71182;-73
2022/12/15 11:58:47;;;;;;;12.70;8.80;;;;;;;4.06;59.28;100132.61;105721;1289;70912;-74
2022/12/15 12:01:33;;;;;;;15.80;10.20;;;;;;;4.35;57.89;100132.95;105853;1288;59511;-73
2022/12/15 12:04:22;;;;;;;14.40;9.40;;;;;;;4.63;56.95;100131.88;105818;1290;59344;-74
2022/12/15 12:07:07;;;;;;;14.60;9.50;;;;;;;4.92;56.21;100131.46;105642;1295;74910;-74
2022/12/15 12:10:01;;;;;;;13.90;9.20;;;;;;;5.28;55.64;100118.95;105692;1291;69872;-73
2022/12/15 12:12:48;;;;;;;13.50;9.30;;;;;;;5.69;54.74;100121.05;105611;1292;70660;-74
2022/12/15 12:15:30;;;;;;;12.90;9.00;;;;;;;6.06;53.52;100121.68;105701;1292;59010;-74
2022/12/15 12:18:10;;;;;;;14.50;9.30;;;;;;;6.28;52.46;100126.92;105733;1292;59141;-74
2022/12/15 12:21:00;;;;;;;13.70;9.80;;;;;;;6.58;52.02;100120.22;105751;1290;74941;-74
2022/12/15 12:23:33;;;;;;;12.60;8.90;;;;;;;6.76;50.40;100116.45;105845;1290;70424;-74
2022/12/15 12:26:21;;;;;;;11.30;8.10;;;;;;;6.93;50.66;100117.20;105577;1288;71435;-74
2022/12/15 12:29:01;;;;;;;12.70;8.80;;;;;;;7.17;49.68;100112.66;105719;1297;59167;-74
2022/12/15 12:31:40;;;;;;;12.40;8.50;;;;;;;7.34;48.51;100116.80;105683;1289;59370;-74
2022/12/15 12:34:21;;;;;;;13.40;9.60;;;;;;;7.80;49.29;100117.41;105697;1294;73163;-74
2022/12/15 12:36:49;;;;;;;10.10;7.60;;;;;;;8.55;48.56;100119.33;105662;1292;68547;-71
2022/12/15 12:39:21;;;;;;;12.30;8.80;;;;;;;9.37;47.33;100114.79;105821;1292;72367;-71
2022/12/15 12:41:50;;;;;;;12.20;8.80;;;;;;;10.24;45.77;100116.41;105792;1289;59218;-71
2022/12/15 12:44:32;;;;;;;12.50;8.00;;;;;;;10.91;43.41;100110.77;105812;1290;60076;-72
2022/12/15 12:47:13;;;;;;;10.70;8.30;;;;;;;11.26;41.44;100111.08;105526;1295;73795;-72
2022/12/15 12:49:54;;;;;;;11.20;8.70;;;;;;;11.78;41.32;100113.52;105755;1292;68823;-72
2022/12/15 12:52:30;;;;;;;11.00;7.70;;;;;;;12.08;39.51;100115.31;105638;1291;72198;-72
2022/12/15 12:55:24;;;;;;;11.90;7.90;;;;;;;11.86;37.91;100119.41;105606;1291;58978;-73
2022/12/15 12:57:52;;;;;;;11.80;8.30;;;;;;;11.78;38.01;100116.79;105799;1285;60511;-73
2022/12/15 13:00:20;;;;;;;12.50;8.80;;;;;;;11.83;38.45;100117.30;105689;1295;73766;-72
2022/12/15 13:02:53;;;;;;;11.10;7.90;;;;;;;12.01;39.20;100118.42;105711;1289;69925;-72
2022/12/15 13:05:29;;;;;;;10.50;8.70;;;;;;;12.26;39.70;100119.79;105786;1291;72478;-72
2022/12/15 13:08:05;;;;;;;10.30;8.30;;;;;;;12.26;38.16;100121.38;105781;1292;59007;-72
2022/12/15 13:10:35;;;;;;;12.60;9.20;;;;;;;12.30;38.67;100121.89;105716;1290;59074;-72
2022/12/15 13:13:07;;;;;;;10.50;8.30;;;;;;;12.43;38.46;100118.19;105676;1283;73405;-72
2022/12/15 13:15:36;;;;;;;10.20;8.00;;;;;;;12.32;37.25;100120.51;105749;1292;68747;-73
2022/12/15 13:18:19;;;;;;;10.00;7.60;;;;;;;12.31;37.40;100115.59;105783;1290;71362;-73
2022/12/15 13:20:48;;;;;;;9.30;7.80;;;;;;;12.28;36.53;100113.81;105668;1288;60227;-73
2022/12/15 13:23:22;;;;;;;10.90;8.20;;;;;;;12.32;36.95;100111.34;105749;1290;60573;-73
2022/12/15 13:25:52;;;;;;;10.80;8.20;;;;;;;12.52;36.98;100112.77;105779;1291;75134;-73
2022/12/15 13:28:44;;;;;;;10.30;8.00;;;;;;;12.73;36.99;100108.41;105796;1291;73842;-73
2022/12/15 13:31:20;;;;;;;11.70;8.30;;;;;;;12.72;36.19;100113.58;105778;1289;71094;-73
2022/12/15 13:33:50;;;;;;;10.00;8.20;;;;;;;12.52;36.15;100113.64;105793;1289;60935;-73
2022/12/15 13:36:35;;;;;;;10.20;7.80;;;;;;;12.25;36.35;100115.77;105809;1290;59311;-73
2022/12/15 13:39:14;;;;;;;11.00;8.60;;;;;;;11.90;36.45;100118.16;105836;1297;74011;-73
2022/12/15 13:42:03;;;;;;;11.60;7.70;;;;;;;11.63;36.80;100111.80;105831;1290;70873;-73
2022/12/15 13:44:55;;;;;;;11.80;8.40;;;;;;;11.17;37.57;100110.24;105637;1291;72560;-73
2022/12/15 13:47:27;;;;;;;10.80;7.90;;;;;;;11.06;38.56;100107.09;105665;1283;60140;-73
2022/12/15 13:49:59;;;;;;;11.00;8.20;;;;;;;10.93;38.38;100105.80;105814;1285;60109;-73
2022/12/15 13:52:38;;;;;;;10.50;8.20;;;;;;;10.77;38.61;100105.14;105666;1292;75041;-73
2022/12/15 13:55:27;;;;;;;10.80;7.80;;;;;;;10.83;39.25;100110.34;105705;1292;71152;-73
2022/12/15 13:58:21;;;;;;;10.80;8.10;;;;;;;10.92;38.87;100114.01;105670;1290;73933;-73
2022/12/15 14:00:56;;;;;;;11.00;8.10;;;;;;;10.92;38.37;100111.55;105646;1292;60326;-73